Time;durP1;ratioP1;P1;durP2;ratioP2;P2;SDS_P1;SDS_P2;PMS_P1;PMS_P2;Temp;Humidity;BMP_temperature;BMP_pressure;BME280_temperature;BME280_humidity;BME280_pressure;Samples;Min_cycle;Max_cycle;Signal;HPM_P1;HPM_P2
2023/12/14 00:19:28;;;;;;;4.68;3.63;;;;;;;20.68;53.39;98864.94;41671990;28;20555;-65
2023/12/14 00:39:28;;;;;;;4.47;3.70;;;;;;;20.67;53.83;98920.34;41667937;28;20497;-66
2023/12/14 00:59:29;;;;;;;4.22;3.63;;;;;;;20.62;53.53;98984.72;41652999;28;20523;-67
2023/12/14 01:19:29;;;;;;;3.60;3.30;;;;;;;20.54;53.12;98970.66;41663737;28;20094;-68
2023/12/14 01:39:30;;;;;;;3.33;3.03;;;;;;;20.58;52.95;98932.56;41662482;28;20052;-66
2023/12/14 01:59:30;;;;;;;3.35;2.97;;;;;;;20.55;53.11;98923.16;41647337;28;20408;-67
2023/12/14 02:19:30;;;;;;;4.15;3.30;;;;;;;20.50;53.19;98959.63;41642993;28;20184;-65
2023/12/14 02:39:31;;;;;;;3.55;3.15;;;;;;;20.48;53.49;98962.41;41657368;28;20527;-69
2023/12/14 02:59:31;;;;;;;3.72;3.25;;;;;;;20.45;53.15;98952.16;41655097;28;20760;-67
2023/12/14 03:19:31;;;;;;;4.03;3.13;;;;;;;20.46;53.20;98974.03;41690623;28;20057;-67
2023/12/14 03:39:33;;;;;;;3.95;3.25;;;;;;;20.43;53.61;99029.53;41672651;28;20056;-66
2023/12/14 03:59:33;;;;;;;3.13;2.83;;;;;;;20.41;53.66;99063.88;41677544;28;20081;-66
2023/12/14 04:19:34;;;;;;;3.72;2.75;;;;;;;20.41;53.30;99084.06;41692047;28;20052;-67
2023/12/14 04:39:35;;;;;;;3.60;3.08;;;;;;;20.38;53.42;99065.97;41659716;28;20041;-67
2023/12/14 04:59:36;;;;;;;3.85;3.45;;;;;;;20.39;53.19;99107.06;41667297;28;20045;-67
2023/12/14 05:19:37;;;;;;;4.80;3.28;;;;;;;20.70;52.53;99133.91;41630273;28;20045;-67
2023/12/14 05:39:41;;;;;;;4.93;3.53;;;;;;;21.34;52.32;99141.84;41617065;28;20084;-68
2023/12/14 05:59:41;;;;;;;11.57;5.25;;;;;;;21.51;53.79;99192.88;41533346;28;20045;-68
2023/12/14 06:19:43;;;;;;;21.15;7.18;;;;;;;21.59;53.63;99203.53;41605731;28;20413;-69
2023/12/14 06:39:43;;;;;;;14.73;7.72;;;;;;;21.58;51.00;99214.19;41637290;28;20045;-71
2023/12/14 06:59:43;;;;;;;17.92;7.70;;;;;;;21.46;52.10;99236.41;41681016;28;20029;-68
2023/12/14 07:19:44;;;;;;;15.73;6.70;;;;;;;21.50;51.93;99272.84;41675963;28;20130;-70
2023/12/14 07:39:44;;;;;;;11.52;6.53;;;;;;;21.63;51.74;99301.53;41713134;28;20377;-68
2023/12/14 07:59:46;;;;;;;8.20;6.35;;;;;;;21.63;51.38;99330.50;41683781;28;20041;-69
2023/12/14 08:19:46;;;;;;;10.25;5.85;;;;;;;21.71;51.11;99356.91;41674628;28;20530;-70
2023/12/14 08:39:47;;;;;;;11.90;6.97;;;;;;;21.78;50.95;99374.78;41698621;28;20049;-69
2023/12/14 08:59:47;;;;;;;16.95;8.07;;;;;;;21.74;50.00;99395.34;41708849;28;20037;-68
2023/12/14 09:19:47;;;;;;;11.25;8.30;;;;;;;21.81;49.84;99414.00;41674895;28;20049;-70
2023/12/14 09:39:48;;;;;;;12.38;9.65;;;;;;;21.70;49.85;99436.97;41680665;28;20068;-68
2023/12/14 09:59:55;;;;;;;13.77;9.90;;;;;;;21.69;49.97;99443.19;41684839;28;20129;-69
2023/12/14 10:19:56;;;;;;;13.80;10.18;;;;;;;21.69;50.51;99471.31;41671141;28;20040;-69
2023/12/14 10:39:57;;;;;;;11.82;9.57;;;;;;;21.74;50.39;99485.75;41685273;28;20076;-71
2023/12/14 10:59:59;;;;;;;12.68;9.95;;;;;;;21.85;50.43;99502.34;41686388;28;20517;-73
2023/12/14 11:20:24;;;;;;;11.82;9.13;;;;;;;21.86;50.40;99519.81;41692379;28;20048;-73
2023/12/14 11:40:26;;;;;;;11.90;9.05;;;;;;;21.87;49.94;99529.38;41728480;28;20128;-73
2023/12/14 12:00:28;;;;;;;11.90;8.80;;;;;;;21.87;49.75;99550.47;41730073;28;20041;-73
2023/12/14 12:20:28;;;;;;;9.50;7.75;;;;;;;21.97;49.77;99563.59;41695781;28;20060;-74
2023/12/14 12:40:31;;;;;;;14.68;7.18;;;;;;;22.42;48.79;99594.53;41695232;28;20278;-75
2023/12/14 13:00:31;;;;;;;9.07;7.63;;;;;;;22.44;49.07;99621.59;41701891;28;20129;-75
2023/12/14 13:20:32;;;;;;;8.65;6.80;;;;;;;22.43;48.53;99648.16;41683047;28;20050;-74
2023/12/14 13:40:34;;;;;;;10.77;6.53;;;;;;;22.05;46.24;99685.81;41655363;28;20049;-74
2023/12/14 14:00:35;;;;;;;9.13;6.93;;;;;;;22.03;47.81;99724.69;41665919;28;20098;-72
2023/12/14 14:20:36;;;;;;;11.27;6.43;;;;;;;21.82;48.91;99755.63;41634181;28;20131;-71
2023/12/14 14:40:36;;;;;;;8.73;5.70;;;;;;;21.90;49.38;99784.78;41577695;28;20049;-74
2023/12/14 15:00:38;;;;;;;10.80;6.28;;;;;;;21.93;50.07;99802.09;41651466;28;20404;-71
2023/12/14 15:20:40;;;;;;;8.80;6.38;;;;;;;21.79;50.35;99843.72;41614084;28;20029;-70
2023/12/14 15:40:41;;;;;;;8.20;5.55;;;;;;;21.74;50.65;99877.56;41650279;28;20128;-71
2023/12/14 16:00:41;;;;;;;7.65;5.60;;;;;;;21.66;50.46;99909.81;41634002;28;20049;-68
2023/12/14 16:20:42;;;;;;;8.23;6.13;;;;;;;21.24;49.02;99933.59;41605335;28;20947;-72
2023/12/14 16:40:44;;;;;;;25.70;9.90;;;;;;;21.59;50.07;99961.38;41604155;28;20053;-71
2023/12/14 17:00:44;;;;;;;12.38;6.90;;;;;;;21.51;50.33;99998.88;41613777;28;20053;-71
2023/12/14 17:20:45;;;;;;;11.32;6.88;;;;;;;21.67;50.79;100026.59;41650559;28;20060;-74
2023/12/14 17:40:46;;;;;;;10.55;6.47;;;;;;;21.70;51.04;100063.22;41577286;28;20042;-72
2023/12/14 18:00:46;;;;;;;10.27;5.85;;;;;;;21.82;51.07;100106.97;41587776;28;20045;-69
2023/12/14 18:20:47;;;;;;;18.67;5.95;;;;;;;21.66;52.03;100146.16;41596516;28;20038;-73
2023/12/14 18:40:47;;;;;;;10.55;5.68;;;;;;;21.65;51.10;100178.72;41625807;28;20056;-72
2023/12/14 19:00:48;;;;;;;9.65;6.35;;;;;;;21.55;51.53;100207.59;41634999;28;20052;-73
2023/12/14 19:20:50;;;;;;;12.93;6.82;;;;;;;21.42;52.21;100244.63;41612855;28;20042;-73
2023/12/14 19:40:51;;;;;;;47.58;25.95;;;;;;;21.42;53.16;100274.44;41636587;28;20053;-72
2023/12/14 20:00:54;;;;;;;35.95;22.30;;;;;;;21.44;53.19;100298.03;41645640;28;20476;-75
2023/12/14 20:20:55;;;;;;;34.10;18.27;;;;;;;21.44;53.84;100322.56;41632702;28;20037;-74
2023/12/14 20:40:55;;;;;;;27.58;15.25;;;;;;;21.29;53.83;100339.59;41599091;28;20021;-70
2023/12/14 21:00:56;;;;;;;24.45;12.68;;;;;;;21.19;53.59;100375.50;41632928;28;20046;-71
2023/12/14 21:20:56;;;;;;;23.63;12.05;;;;;;;21.21;53.27;100395.47;41651977;28;20392;-68
2023/12/14 21:40:56;;;;;;;21.30;12.18;;;;;;;21.20;53.46;100422.78;41670409;28;20154;-67
2023/12/14 22:00:57;;;;;;;17.70;10.40;;;;;;;21.15;53.53;100453.06;41695564;28;20141;-68
2023/12/14 22:20:57;;;;;;;17.55;10.57;;;;;;;21.13;53.55;100478.66;41666886;28;21060;-66
2023/12/14 22:40:58;;;;;;;14.48;9.07;;;;;;;21.05;53.67;100493.25;41676940;28;20045;-71
2023/12/14 23:00:58;;;;;;;12.50;8.95;;;;;;;21.02;53.72;100508.44;41663667;28;20051;-70
2023/12/14 23:20:58;;;;;;;13.48;9.15;;;;;;;20.95;54.65;100510.69;41688596;28;20481;-68
2023/12/14 23:40:59;;;;;;;11.82;8.27;;;;;;;20.91;54.45;100528.50;41685770;28;20140;-68
